Time;durP1;ratioP1;P1;durP2;ratioP2;P2;SDS_P1;SDS_P2;PMS_P1;PMS_P2;Temp;Humidity;BMP_temperature;BMP_pressure;BME280_temperature;BME280_humidity;BME280_pressure;Samples;Min_cycle;Max_cycle;Signal;HPM_P1;HPM_P2
2022/04/04 00:00:46;;;;;;;14.20;6.73;;;;;;;-1.85;75.94;94116.16;5046279;28;20082;-52
2022/04/04 00:03:13;;;;;;;14.07;7.30;;;;;;;-1.74;75.71;94114.63;5010803;28;20857;-51
2022/04/04 00:05:40;;;;;;;21.33;9.20;;;;;;;-1.75;75.37;94110.38;5011530;28;20068;-50
2022/04/04 00:08:08;;;;;;;15.50;7.32;;;;;;;-1.81;75.46;94099.03;5028312;28;20057;-54
2022/04/04 00:10:35;;;;;;;17.17;8.73;;;;;;;-1.75;75.56;94101.50;5031505;28;20080;-46
2022/04/04 00:13:01;;;;;;;16.40;8.40;;;;;;;-1.75;74.80;94098.81;5030906;28;20049;-48
2022/04/04 00:15:28;;;;;;;30.95;9.15;;;;;;;-1.70;74.77;94096.69;5031282;28;20045;-46
2022/04/04 00:17:55;;;;;;;22.80;8.05;;;;;;;-1.78;74.74;94094.09;5029400;28;20055;-49
2022/04/04 00:20:22;;;;;;;14.20;7.32;;;;;;;-1.85;75.02;94090.06;5030908;28;20052;-47
2022/04/04 00:22:49;;;;;;;20.85;7.50;;;;;;;-1.90;75.01;94089.47;5029306;28;20053;-48
2022/04/04 00:25:16;;;;;;;21.87;7.70;;;;;;;-1.89;75.16;94088.34;5031119;28;20061;-49
2022/04/04 00:27:44;;;;;;;16.52;8.10;;;;;;;-1.94;75.05;94094.72;5031071;28;20044;-49
2022/04/04 00:30:11;;;;;;;15.77;7.60;;;;;;;-1.98;74.62;94088.44;5029076;28;20045;-46
2022/04/04 00:32:37;;;;;;;19.23;9.45;;;;;;;-2.01;74.45;94087.22;5030925;28;20049;-53
2022/04/04 00:35:04;;;;;;;14.98;7.45;;;;;;;-2.13;74.77;94089.84;5030590;28;20053;-48
2022/04/04 00:37:33;;;;;;;13.50;7.13;;;;;;;-2.16;74.00;94092.41;5030874;28;20045;-45
2022/04/04 00:40:00;;;;;;;17.67;7.30;;;;;;;-2.31;74.99;94083.84;5030180;28;20497;-46
2022/04/04 00:42:27;;;;;;;16.98;8.50;;;;;;;-2.38;75.18;94088.97;5030795;28;20057;-49
2022/04/04 00:44:54;;;;;;;16.23;7.70;;;;;;;-2.33;75.00;94086.09;5029927;28;20049;-48
2022/04/04 00:47:21;;;;;;;13.93;6.88;;;;;;;-2.30;75.22;94085.41;5030954;28;20053;-50
2022/04/04 00:49:48;;;;;;;14.53;6.93;;;;;;;-2.27;75.20;94076.69;5030075;28;20049;-49
2022/04/04 00:52:16;;;;;;;13.85;6.55;;;;;;;-2.24;75.10;94077.94;5030660;28;20051;-49
2022/04/04 00:54:43;;;;;;;14.35;7.13;;;;;;;-2.32;75.27;94070.72;5030555;28;20061;-52
2022/04/04 00:57:10;;;;;;;14.05;7.05;;;;;;;-2.36;75.46;94075.19;5030155;28;20052;-50
2022/04/04 00:59:38;;;;;;;15.63;7.10;;;;;;;-2.49;76.19;94066.31;5022621;28;20049;-49
2022/04/04 01:02:05;;;;;;;14.57;7.27;;;;;;;-2.64;76.55;94075.72;5025202;28;20054;-48
2022/04/04 01:04:33;;;;;;;16.67;8.20;;;;;;;-2.73;76.67;94077.72;5010799;28;20050;-47
2022/04/04 01:07:01;;;;;;;16.88;8.70;;;;;;;-2.95;77.21;94078.81;5018537;28;20045;-49
2022/04/04 01:09:28;;;;;;;14.90;7.90;;;;;;;-3.22;77.90;94068.22;5030391;28;20055;-51
2022/04/04 01:12:12;;;;;;;14.88;7.00;;;;;;;-3.21;77.00;94085.09;5029974;28;20045;-53
2022/04/04 01:14:46;;;;;;;14.73;7.03;;;;;;;-3.24;77.35;94088.41;5030335;28;20045;-53
2022/04/04 01:17:14;;;;;;;17.45;7.47;;;;;;;-3.24;77.00;94070.44;5029253;28;20052;-47
2022/04/04 01:19:41;;;;;;;16.58;8.30;;;;;;;-3.26;77.29;94085.28;5030199;28;20042;-48
2022/04/04 01:22:10;;;;;;;15.10;7.07;;;;;;;-3.31;76.87;94080.88;5029927;28;20046;-48
2022/04/04 01:24:38;;;;;;;13.85;6.82;;;;;;;-3.36;76.72;94075.72;5030429;28;20057;-56
2022/04/04 01:27:06;;;;;;;13.97;6.60;;;;;;;-3.41;76.89;94082.03;5029697;28;20041;-48
2022/04/04 01:29:34;;;;;;;13.52;6.50;;;;;;;-3.40;77.06;94082.84;5029914;28;20049;-50
2022/04/04 01:32:01;;;;;;;13.38;6.72;;;;;;;-3.44;76.94;94076.53;5028335;28;20056;-47
2022/04/04 01:34:29;;;;;;;14.25;6.88;;;;;;;-3.49;77.21;94074.81;5030042;28;20050;-49
2022/04/04 01:36:56;;;;;;;13.80;6.60;;;;;;;-3.56;77.22;94069.19;5029649;28;20107;-49
2022/04/04 01:39:24;;;;;;;14.83;6.40;;;;;;;-3.64;77.38;94068.09;5028730;28;20042;-50
2022/04/04 01:41:51;;;;;;;13.57;6.70;;;;;;;-3.71;76.91;94059.75;5029560;28;20056;-48
2022/04/04 01:44:18;;;;;;;17.10;7.50;;;;;;;-3.72;77.30;94066.25;5029955;28;20058;-49
2022/04/04 01:46:45;;;;;;;14.40;7.03;;;;;;;-3.76;77.95;94065.31;5028853;28;20049;-47
2022/04/04 01:49:12;;;;;;;14.55;6.85;;;;;;;-3.85;77.54;94057.28;5029218;28;20200;-47
2022/04/04 01:51:40;;;;;;;14.43;7.47;;;;;;;-3.86;77.30;94052.25;5028798;28;20046;-51
2022/04/04 01:54:06;;;;;;;17.73;7.80;;;;;;;-3.96;77.58;94053.38;5029549;28;20394;-47
2022/04/04 01:56:33;;;;;;;18.92;7.95;;;;;;;-4.02;77.65;94062.72;5028593;28;20060;-52
2022/04/04 01:59:01;;;;;;;17.02;7.90;;;;;;;-4.08;77.18;94054.06;5028196;28;20067;-45
2022/04/04 02:01:28;;;;;;;16.55;8.30;;;;;;;-4.17;77.62;94061.31;5029895;28;20056;-45
2022/04/04 02:03:57;;;;;;;17.83;8.77;;;;;;;-4.25;78.66;94067.47;5029495;28;20049;-47
2022/04/04 02:06:24;;;;;;;18.27;8.63;;;;;;;-4.32;79.05;94061.84;5029671;28;20049;-48
2022/04/04 02:08:51;;;;;;;20.42;9.55;;;;;;;-4.39;78.65;94059.63;5030838;28;20186;-52
2022/04/04 02:11:22;;;;;;;18.65;9.40;;;;;;;-4.39;79.11;94064.19;5033177;28;20049;-45
2022/04/04 02:13:48;;;;;;;19.52;8.73;;;;;;;-4.44;79.19;94063.25;5032998;28;20053;-46
2022/04/04 02:16:15;;;;;;;22.77;10.20;;;;;;;-4.52;78.95;94057.91;5033268;28;20041;-50
2022/04/04 02:18:42;;;;;;;20.30;9.20;;;;;;;-4.55;79.19;94059.31;5033218;28;20065;-44
2022/04/04 02:21:09;;;;;;;17.63;8.20;;;;;;;-4.57;79.45;94053.50;5033145;28;20044;-52
2022/04/04 02:23:37;;;;;;;16.52;7.47;;;;;;;-4.50;79.45;94055.72;5033434;28;20057;-44
2022/04/04 02:26:04;;;;;;;18.13;7.90;;;;;;;-4.58;79.10;94056.50;5032696;28;20133;-48
2022/04/04 02:28:31;;;;;;;19.70;8.13;;;;;;;-4.61;79.27;94063.25;5030326;28;20048;-47
2022/04/04 02:30:59;;;;;;;22.88;8.98;;;;;;;-4.70;79.25;94057.91;5024327;28;20042;-49
2022/04/04 02:33:26;;;;;;;22.85;8.93;;;;;;;-4.84;79.55;94051.94;5013512;28;20135;-47
2022/04/04 02:35:53;;;;;;;25.58;9.80;;;;;;;-4.82;79.91;94058.53;5012580;28;20054;-51
2022/04/04 02:38:23;;;;;;;23.10;9.50;;;;;;;-4.77;79.81;94046.09;5028220;28;20049;-49
2022/04/04 02:40:51;;;;;;;18.50;8.13;;;;;;;-4.78;80.02;94041.88;5012721;28;20418;-47
2022/04/04 02:43:19;;;;;;;18.10;7.97;;;;;;;-4.80;80.05;94050.19;5013212;28;20406;-51
2022/04/04 02:45:46;;;;;;;28.10;10.40;;;;;;;-4.75;80.10;94046.56;5013277;28;20100;-47
2022/04/04 02:48:15;;;;;;;26.15;9.48;;;;;;;-4.78;79.90;94041.88;5012247;28;20412;-52
2022/04/04 02:50:46;;;;;;;25.23;8.90;;;;;;;-4.83;79.25;94037.44;5013102;28;20042;-52
2022/04/04 02:53:14;;;;;;;28.20;9.77;;;;;;;-4.82;79.58;94036.34;5012104;28;20188;-54
2022/04/04 02:58:27;;;;;;;40.42;12.48;;;;;;;-4.80;79.91;94023.44;5012032;28;20735;-51
2022/04/04 03:00:54;;;;;;;38.85;13.02;;;;;;;-4.84;80.08;94031.31;5011115;28;20120;-46
2022/04/04 03:03:20;;;;;;;28.77;10.30;;;;;;;-4.88;79.91;94016.97;5012881;28;20461;-47
2022/04/04 03:05:48;;;;;;;28.07;11.07;;;;;;;-4.93;79.69;94022.50;5011192;28;20045;-45
2022/04/04 03:08:14;;;;;;;23.95;10.23;;;;;;;-4.95;80.18;94026.56;5031094;28;20037;-49
2022/04/04 03:10:41;;;;;;;26.58;10.80;;;;;;;-5.00;80.41;94016.81;5032481;28;20045;-47
2022/04/04 03:13:08;;;;;;;24.23;9.93;;;;;;;-5.04;81.10;94021.22;5031905;28;20090;-52
2022/04/04 03:15:36;;;;;;;22.13;9.57;;;;;;;-5.09;81.52;94021.38;5032237;28;20072;-49
2022/04/04 03:18:04;;;;;;;21.47;9.33;;;;;;;-5.08;81.59;94022.97;5031679;28;20068;-47
2022/04/04 03:20:32;;;;;;;22.15;9.05;;;;;;;-5.08;81.86;94022.97;5030914;28;20056;-44
2022/04/04 03:23:00;;;;;;;23.08;9.80;;;;;;;-5.12;81.55;94025.47;5031722;28;20116;-44
2022/04/04 03:25:27;;;;;;;22.90;9.38;;;;;;;-5.16;81.16;94023.75;5032083;28;20107;-45
2022/04/04 03:27:55;;;;;;;21.52;9.48;;;;;;;-5.20;81.28;94020.13;5031450;28;20045;-46
2022/04/04 03:30:26;;;;;;;22.80;10.10;;;;;;;-5.23;80.77;94024.22;5021279;28;20053;-49
2022/04/04 03:32:57;;;;;;;23.60;10.32;;;;;;;-5.32;81.46;94024.19;5011618;28;20042;-45
2022/04/04 03:35:28;;;;;;;24.65;10.27;;;;;;;-5.40;81.98;94027.63;5011966;28;20042;-54
2022/04/04 03:37:58;;;;;;;21.00;9.85;;;;;;;-5.41;81.93;94020.72;5011503;28;20046;-51
2022/04/04 03:40:26;;;;;;;23.05;10.10;;;;;;;-5.47;81.92;94020.06;5011881;28;20049;-49
2022/04/04 03:42:55;;;;;;;18.53;8.90;;;;;;;-5.43;81.88;94025.59;5010034;28;20050;-49
2022/04/04 03:45:24;;;;;;;21.08;8.30;;;;;;;-5.46;81.49;94023.53;5012037;28;20483;-45
2022/04/04 03:47:52;;;;;;;19.40;8.90;;;;;;;-5.47;81.98;94030.00;5010228;28;20042;-46
2022/04/04 03:50:20;;;;;;;20.25;8.48;;;;;;;-5.47;81.73;94021.97;5011862;28;20049;-51
2022/04/04 03:52:51;;;;;;;18.98;8.30;;;;;;;-5.51;81.95;94023.69;5011411;28;20046;-44
2022/04/04 03:55:21;;;;;;;19.57;8.47;;;;;;;-5.52;81.44;94024.78;5011538;28;20060;-45
2022/04/04 03:57:48;;;;;;;20.40;8.50;;;;;;;-5.58;81.28;94029.47;5011309;28;20041;-49
2022/04/04 04:00:16;;;;;;;17.80;8.50;;;;;;;-5.59;81.43;94024.44;5011597;28;20215;-47
2022/04/04 04:02:43;;;;;;;19.13;8.50;;;;;;;-5.68;81.22;94027.09;5011596;28;20038;-46
2022/04/04 04:05:12;;;;;;;18.17;8.63;;;;;;;-5.70;81.49;94026.63;5011009;28;20050;-45
2022/04/04 04:07:39;;;;;;;17.93;8.77;;;;;;;-5.69;81.47;94017.50;5025032;28;20049;-47
2022/04/04 04:10:06;;;;;;;17.98;7.95;;;;;;;-5.70;81.67;94011.34;5030752;28;20057;-47
2022/04/04 04:12:33;;;;;;;19.27;9.13;;;;;;;-5.66;81.90;94025.69;5031241;28;20048;-46
2022/04/04 04:15:00;;;;;;;26.75;10.18;;;;;;;-5.68;82.01;94016.41;5029398;28;20387;-51
2022/04/04 04:17:27;;;;;;;18.98;9.90;;;;;;;-5.71;81.85;94012.47;5030845;28;20415;-46
2022/04/04 04:22:39;;;;;;;19.30;9.27;;;;;;;-5.78;81.80;94009.44;5029850;28;20506;-46
2022/04/04 04:25:07;;;;;;;17.60;8.30;;;;;;;-5.87;81.78;94001.41;5029345;28;20056;-46
2022/04/04 04:27:35;;;;;;;16.85;7.72;;;;;;;-5.85;82.26;94004.56;5030919;28;20046;-52
2022/04/04 04:30:03;;;;;;;19.27;8.43;;;;;;;-5.86;82.28;94011.00;5021846;28;20038;-50
2022/04/04 04:32:30;;;;;;;16.03;7.80;;;;;;;-5.92;82.30;94000.75;5011320;28;20182;-52
2022/04/04 04:34:57;;;;;;;16.98;7.65;;;;;;;-5.90;82.04;94001.25;5010467;28;20056;-48
2022/04/04 04:37:24;;;;;;;14.77;7.05;;;;;;;-5.90;81.99;93998.56;5011091;28;20054;-49
2022/04/04 04:39:51;;;;;;;17.10;7.30;;;;;;;-5.98;81.98;94005.47;5010416;28;20046;-48
2022/04/04 04:42:18;;;;;;;17.17;7.53;;;;;;;-5.97;82.39;94015.09;5010930;28;20052;-47
2022/04/04 04:44:45;;;;;;;16.57;7.50;;;;;;;-6.03;82.73;94019.78;5010862;28;20042;-52
2022/04/04 04:47:14;;;;;;;19.60;7.78;;;;;;;-6.04;82.04;94017.41;5010004;28;20206;-48
2022/04/04 04:49:41;;;;;;;16.77;7.63;;;;;;;-6.05;81.79;94024.63;5010851;28;20052;-49
2022/04/04 04:52:07;;;;;;;15.63;7.55;;;;;;;-6.03;82.10;94019.00;5010417;28;20131;-50
2022/04/04 04:54:35;;;;;;;19.58;7.70;;;;;;;-6.09;82.30;94022.91;5011053;28;20406;-49
2022/04/04 04:57:02;;;;;;;20.00;8.10;;;;;;;-6.06;82.21;94028.41;5010185;28;20061;-47
2022/04/04 04:59:28;;;;;;;18.88;8.43;;;;;;;-6.15;82.90;94024.13;5010764;28;20648;-47
2022/04/04 05:01:55;;;;;;;42.58;15.07;;;;;;;-6.08;81.88;94027.91;5009995;28;20046;-51
2022/04/04 05:04:22;;;;;;;31.75;12.07;;;;;;;-6.03;81.86;94027.78;5010728;28;20046;-48
2022/04/04 05:06:49;;;;;;;26.90;11.25;;;;;;;-6.01;81.92;94024.81;5016813;28;20061;-45
2022/04/04 05:09:17;;;;;;;28.20;12.73;;;;;;;-5.99;81.66;94027.97;5030246;28;20053;-53
2022/04/04 05:11:45;;;;;;;28.83;12.68;;;;;;;-5.95;81.49;94034.28;5030434;28;20049;-51
2022/04/04 05:14:15;;;;;;;27.17;12.40;;;;;;;-5.93;81.20;94032.06;5029650;28;20052;-45
2022/04/04 05:16:43;;;;;;;24.35;10.63;;;;;;;-5.91;80.77;94032.53;5030240;28;20049;-47
2022/04/04 05:19:12;;;;;;;25.58;10.27;;;;;;;-5.94;80.93;94032.34;5029602;28;20041;-53
2022/04/04 05:21:39;;;;;;;22.93;9.93;;;;;;;-5.88;80.67;94033.78;5030355;28;20042;-45
2022/04/04 05:24:07;;;;;;;22.35;10.20;;;;;;;-5.82;80.59;94030.66;5028515;28;20067;-52
2022/04/04 05:26:35;;;;;;;32.03;14.02;;;;;;;-5.76;80.30;94038.56;5030267;28;20041;-47
2022/04/04 05:29:03;;;;;;;61.78;25.05;;;;;;;-5.65;79.63;94034.50;5029391;28;20052;-47
2022/04/04 05:31:34;;;;;;;44.80;19.08;;;;;;;-5.54;79.78;94032.31;5029976;28;20038;-50
2022/04/04 05:34:04;;;;;;;31.03;14.23;;;;;;;-5.55;78.98;94036.09;5029381;28;20065;-47
2022/04/04 05:36:33;;;;;;;26.60;11.27;;;;;;;-5.59;79.37;94037.81;5029798;28;20053;-53
2022/04/04 05:39:00;;;;;;;22.10;10.25;;;;;;;-5.58;79.90;94034.81;5029315;28;20075;-48
2022/04/04 05:41:30;;;;;;;22.15;10.00;;;;;;;-5.53;79.82;94045.38;5029959;28;20045;-48
2022/04/04 05:43:58;;;;;;;24.77;10.10;;;;;;;-5.52;80.37;94032.81;5032871;28;20046;-46
2022/04/04 05:46:25;;;;;;;22.03;9.77;;;;;;;-5.51;80.30;94045.09;5034071;28;20061;-51
2022/04/04 05:48:52;;;;;;;21.90;9.73;;;;;;;-5.43;79.50;94047.00;5033471;28;20401;-49
2022/04/04 05:51:19;;;;;;;23.30;9.45;;;;;;;-5.38;79.44;94043.38;5033772;28;20076;-47
2022/04/04 05:53:45;;;;;;;21.90;9.60;;;;;;;-5.37;79.80;94047.59;5033678;28;20061;-47
2022/04/04 05:56:12;;;;;;;21.27;9.57;;;;;;;-5.24;78.70;94046.69;5032496;28;20041;-52
2022/04/04 05:58:40;;;;;;;24.83;10.90;;;;;;;-5.25;78.73;94047.81;5015575;28;20053;-49
2022/04/04 06:01:11;;;;;;;41.47;15.60;;;;;;;-5.30;79.39;94042.59;5033160;28;20049;-46
2022/04/04 06:03:38;;;;;;;28.85;11.95;;;;;;;-5.25;79.00;94035.22;5033648;28;20042;-51
2022/04/04 06:06:05;;;;;;;23.05;9.73;;;;;;;-5.27;78.77;94045.44;5032954;28;20099;-53
2022/04/04 06:08:32;;;;;;;20.55;9.40;;;;;;;-5.25;79.22;94040.56;5033369;28;20044;-52
2022/04/04 06:10:59;;;;;;;19.27;8.60;;;;;;;-5.15;79.05;94038.69;5033033;28;20049;-49
2022/04/04 06:13:26;;;;;;;20.10;9.23;;;;;;;-5.47;79.58;94040.69;5033589;28;20046;-49
2022/04/04 06:15:53;;;;;;;23.67;9.85;;;;;;;-5.63;80.17;94045.69;5032819;28;20053;-47
2022/04/04 06:18:20;;;;;;;23.10;10.25;;;;;;;-5.49;80.31;94042.88;5032768;28;20075;-49
2022/04/04 06:20:46;;;;;;;20.27;9.50;;;;;;;-5.49;79.53;94034.88;5033200;28;20072;-49
2022/04/04 06:23:14;;;;;;;23.13;8.90;;;;;;;-5.41;80.42;94042.13;5032268;28;20910;-54
2022/04/04 06:25:41;;;;;;;19.02;8.73;;;;;;;-5.39;80.29;94039.09;5032324;28;20048;-47
2022/04/04 06:28:09;;;;;;;20.30;9.57;;;;;;;-5.16;79.99;94042.47;5030332;28;20055;-53
2022/04/04 06:30:36;;;;;;;23.67;9.38;;;;;;;-4.92;79.45;94042.78;5028672;28;20052;-45
2022/04/04 06:33:06;;;;;;;24.90;9.73;;;;;;;-4.83;79.81;94040.09;5030194;28;20439;-51
2022/04/04 06:35:33;;;;;;;22.30;9.57;;;;;;;-4.66;79.54;94037.44;5030885;28;20045;-48
2022/04/04 06:38:03;;;;;;;21.10;9.13;;;;;;;-4.75;80.04;94041.22;5030481;28;20482;-46
2022/04/04 06:40:32;;;;;;;23.40;9.23;;;;;;;-4.80;80.22;94039.50;5032186;28;20045;-48
2022/04/04 06:42:59;;;;;;;22.45;9.82;;;;;;;-4.58;80.34;94038.53;5031956;28;20045;-48
2022/04/04 06:45:27;;;;;;;22.25;10.23;;;;;;;-4.21;79.36;94041.63;5032339;28;20049;-46
2022/04/04 06:47:53;;;;;;;27.53;11.57;;;;;;;-4.06;78.93;94043.03;5031607;28;20049;-47
2022/04/04 06:50:21;;;;;;;29.38;12.55;;;;;;;-4.09;79.12;94032.91;5032320;28;20041;-49
2022/04/04 06:52:48;;;;;;;22.55;10.90;;;;;;;-3.73;78.23;94039.75;5030541;28;20130;-47
2022/04/04 06:55:35;;;;;;;19.52;9.65;;;;;;;-3.45;77.57;94026.66;5032639;28;20515;-48
2022/04/04 06:58:02;;;;;;;20.27;9.95;;;;;;;-1.70;72.67;94025.97;5032227;28;20045;-53
2022/04/04 07:00:29;;;;;;;22.10;10.10;;;;;;;1.24;61.87;94017.66;5032666;28;20092;-53
2022/04/04 07:02:57;;;;;;;20.23;10.13;;;;;;;3.15;56.24;94016.44;5032034;28;20049;-54
2022/04/04 07:05:25;;;;;;;19.02;9.88;;;;;;;3.89;52.27;94015.06;5032445;28;20041;-50
2022/04/04 07:07:52;;;;;;;18.95;10.35;;;;;;;5.96;47.94;94010.47;5031621;28;20046;-47
2022/04/04 07:10:19;;;;;;;18.38;9.90;;;;;;;5.75;46.69;94021.22;5032277;28;20051;-46
2022/04/04 07:12:46;;;;;;;18.30;10.13;;;;;;;8.52;43.40;94016.47;5032419;28;20049;-51
2022/04/04 07:15:13;;;;;;;22.63;10.88;;;;;;;10.09;37.81;94013.53;5031577;28;20839;-49
2022/04/04 07:17:42;;;;;;;16.95;9.50;;;;;;;9.65;38.32;94007.72;5032343;28;20394;-51
2022/04/04 07:20:09;;;;;;;15.85;9.38;;;;;;;10.86;36.23;93998.41;5031894;28;20703;-53
2022/04/04 07:22:37;;;;;;;14.63;9.23;;;;;;;12.29;34.15;93995.13;5031972;28;20060;-52
2022/04/04 07:25:10;;;;;;;16.83;10.07;;;;;;;12.34;32.21;93994.63;5031466;28;20068;-48
2022/04/04 07:27:41;;;;;;;15.48;10.00;;;;;;;12.71;31.92;93995.41;5032003;28;20061;-52
2022/04/04 07:30:11;;;;;;;14.55;9.52;;;;;;;13.40;30.87;93995.41;5033167;28;20105;-46
2022/04/04 07:32:38;;;;;;;14.90;10.43;;;;;;;11.23;33.90;93996.66;5022863;28;20052;-48
2022/04/04 07:35:11;;;;;;;11.90;8.65;;;;;;;10.76;36.18;93984.41;5011802;28;20052;-47
2022/04/04 07:37:49;;;;;;;12.17;9.17;;;;;;;10.09;36.41;93988.84;5012219;28;20058;-49
2022/04/04 07:40:18;;;;;;;15.60;9.10;;;;;;;11.22;35.43;93984.13;5011192;28;20197;-54
2022/04/04 07:42:45;;;;;;;12.52;8.63;;;;;;;11.76;33.82;93990.22;5010915;28;20061;-47
2022/04/04 07:45:14;;;;;;;13.23;8.70;;;;;;;10.61;34.01;93994.06;5011570;28;21128;-49
2022/04/04 07:47:42;;;;;;;13.50;8.57;;;;;;;10.64;32.02;93985.00;5012175;28;20056;-49
2022/04/04 07:50:11;;;;;;;13.97;7.80;;;;;;;13.99;28.60;93991.50;5011629;28;20038;-52
2022/04/04 07:52:38;;;;;;;9.07;6.47;;;;;;;12.07;27.46;93978.28;5011883;28;20056;-51
2022/04/04 07:55:06;;;;;;;9.30;6.70;;;;;;;11.95;29.16;93988.72;5011345;28;20041;-55
2022/04/04 07:57:33;;;;;;;10.88;7.40;;;;;;;15.04;25.00;93985.75;5011777;28;20046;-50
2022/04/04 08:00:00;;;;;;;9.85;6.25;;;;;;;17.78;22.52;93981.72;5010098;28;20512;-48
2022/04/04 08:02:26;;;;;;;10.03;6.53;;;;;;;17.51;21.42;93979.69;5043213;28;20053;-51
2022/04/04 08:04:53;;;;;;;14.57;7.00;;;;;;;18.10;21.71;93989.97;5010333;28;20049;-50
2022/04/04 08:07:20;;;;;;;9.25;6.35;;;;;;;19.33;19.57;93977.66;5022489;28;20046;-51
2022/04/04 08:09:47;;;;;;;8.63;6.82;;;;;;;18.63;19.67;93986.06;5031255;28;20045;-55
2022/04/04 08:12:14;;;;;;;9.25;6.53;;;;;;;16.42;21.33;93987.06;5030470;28;20815;-48
2022/04/04 08:14:41;;;;;;;11.77;7.57;;;;;;;14.93;22.42;93986.88;5031355;28;20046;-48
2022/04/04 08:17:08;;;;;;;10.80;7.15;;;;;;;13.87;24.26;93989.47;5030674;28;20063;-53
2022/04/04 08:19:35;;;;;;;14.45;7.10;;;;;;;14.35;23.98;93987.75;5030919;28;20110;-53
2022/04/04 08:22:02;;;;;;;11.27;6.80;;;;;;;17.16;21.69;93985.47;5030620;28;20099;-52
2022/04/04 08:24:30;;;;;;;9.93;6.72;;;;;;;16.12;21.34;93981.00;5031261;28;20068;-51
2022/04/04 08:26:57;;;;;;;9.63;6.70;;;;;;;16.53;20.94;93990.19;5030396;28;20058;-52
2022/04/04 08:29:24;;;;;;;8.15;6.40;;;;;;;16.53;20.91;93990.19;5030981;28;20510;-49
2022/04/04 08:31:51;;;;;;;9.45;6.28;;;;;;;17.87;19.90;93980.25;5027919;28;20520;-50
2022/04/04 08:34:18;;;;;;;14.35;6.82;;;;;;;16.82;20.66;93980.06;5026281;28;20045;-48
2022/04/04 08:36:45;;;;;;;9.13;6.72;;;;;;;16.67;20.74;93977.03;5011139;28;20049;-56
2022/04/04 08:39:12;;;;;;;8.23;6.87;;;;;;;16.72;20.88;93982.75;5025969;28;20509;-51
2022/04/04 08:41:39;;;;;;;9.63;6.88;;;;;;;16.87;20.15;93977.47;5011313;28;20059;-53
2022/04/04 08:44:06;;;;;;;10.32;7.75;;;;;;;17.18;20.00;93973.88;5010709;28;20509;-51
2022/04/04 08:46:33;;;;;;;9.13;7.50;;;;;;;16.15;21.02;93969.00;5011139;28;20056;-49
2022/04/04 08:49:05;;;;;;;10.02;7.70;;;;;;;15.50;21.29;93978.72;5010553;28;20045;-47
2022/04/04 08:51:33;;;;;;;10.07;7.33;;;;;;;14.89;21.80;93969.63;5010900;28;20054;-51
2022/04/04 08:54:00;;;;;;;9.50;7.10;;;;;;;16.07;20.83;93969.72;5010427;28;20115;-52
2022/04/04 08:56:28;;;;;;;8.15;6.80;;;;;;;18.94;18.42;93972.72;5010706;28;20048;-50
2022/04/04 08:58:55;;;;;;;9.73;7.72;;;;;;;19.94;17.07;93964.34;5010490;28;20046;-50
2022/04/04 09:01:24;;;;;;;12.00;7.47;;;;;;;18.36;18.51;93963.41;5010806;28;20038;-50
2022/04/04 09:04:12;;;;;;;9.77;7.40;;;;;;;17.65;18.67;93953.34;5010338;28;20048;-49
2022/04/04 09:06:53;;;;;;;10.60;7.45;;;;;;;15.70;20.44;93961.84;5016003;28;20118;-48
2022/04/04 09:09:46;;;;;;;9.77;7.95;;;;;;;17.16;18.91;93954.16;5029645;28;20637;-54
2022/04/04 09:12:19;;;;;;;9.82;7.20;;;;;;;16.83;19.01;93954.66;5029504;28;20049;-51
2022/04/04 09:14:51;;;;;;;8.32;6.85;;;;;;;18.69;18.00;93948.03;5030543;28;20063;-55
2022/04/04 09:17:21;;;;;;;8.83;7.40;;;;;;;17.31;19.22;93951.59;5029401;28;20243;-51
2022/04/04 09:19:48;;;;;;;9.70;7.38;;;;;;;18.85;17.76;93950.50;5029783;28;20053;-50
2022/04/04 09:22:20;;;;;;;10.48;7.47;;;;;;;15.79;20.17;93936.28;5030312;28;20099;-50
2022/04/04 09:24:58;;;;;;;11.80;8.05;;;;;;;13.79;22.27;93944.75;5030338;28;20060;-52
2022/04/04 09:27:33;;;;;;;9.48;7.55;;;;;;;16.67;20.31;93935.47;5029616;28;20068;-55
2022/04/04 09:30:04;;;;;;;10.17;7.30;;;;;;;17.91;18.66;93928.88;5025309;28;20388;-51
2022/04/04 09:32:46;;;;;;;9.50;7.68;;;;;;;17.46;20.45;93921.25;5008535;28;20046;-53
2022/04/04 09:35:15;;;;;;;9.50;7.75;;;;;;;17.09;20.21;93918.41;5009531;28;21802;-51
2022/04/04 09:37:50;;;;;;;10.48;7.97;;;;;;;16.57;21.32;93915.25;5010088;28;20046;-50
2022/04/04 09:40:20;;;;;;;8.85;7.50;;;;;;;17.81;20.50;93918.97;5009549;28;20072;-52
2022/04/04 09:42:51;;;;;;;10.33;7.83;;;;;;;19.22;18.52;93908.63;5010272;28;20049;-51
2022/04/04 09:45:24;;;;;;;9.43;7.80;;;;;;;17.32;20.47;93920.59;5009204;28;20666;-50
2022/04/04 09:47:58;;;;;;;10.40;8.45;;;;;;;19.20;18.06;93902.00;5009935;28;20038;-54
2022/04/04 09:50:37;;;;;;;9.48;7.60;;;;;;;20.00;17.49;93905.16;5010452;28;20060;-51
2022/04/04 09:53:15;;;;;;;8.85;7.13;;;;;;;18.20;19.07;93897.06;5009817;28;20049;-51
2022/04/04 09:55:52;;;;;;;8.30;7.17;;;;;;;16.58;20.43;93891.88;5010152;28;20061;-48
2022/04/04 09:58:21;;;;;;;10.63;8.00;;;;;;;16.87;20.56;93894.31;5009250;28;21972;-54
2022/04/04 10:00:49;;;;;;;9.57;8.20;;;;;;;19.12;18.87;93890.44;5008196;28;20073;-49
2022/04/04 10:03:18;;;;;;;11.60;8.00;;;;;;;20.28;17.39;93881.41;5009953;28;20054;-47
2022/04/04 10:05:58;;;;;;;9.30;7.53;;;;;;;20.60;17.26;93870.53;5010133;28;20050;-51
2022/04/04 10:08:26;;;;;;;8.93;7.57;;;;;;;19.00;18.62;93866.41;5024561;28;21555;-51
2022/04/04 10:10:56;;;;;;;10.05;7.50;;;;;;;19.83;17.74;93858.28;5029441;28;20052;-48
2022/04/04 10:13:25;;;;;;;8.27;7.38;;;;;;;20.45;17.75;93864.19;5029700;28;20099;-54
2022/04/04 10:15:53;;;;;;;9.68;7.50;;;;;;;19.10;17.83;93854.75;5029306;28;20096;-51
2022/04/04 10:18:20;;;;;;;9.60;7.40;;;;;;;17.91;19.38;93861.50;5029327;28;20045;-55
2022/04/04 10:20:56;;;;;;;9.77;8.00;;;;;;;18.08;19.10;93853.59;5029354;28;20057;-49
2022/04/04 10:23:25;;;;;;;10.55;6.95;;;;;;;15.63;21.51;93853.44;5029890;28;20046;-50
2022/04/04 10:25:53;;;;;;;8.70;6.43;;;;;;;18.82;18.11;93845.78;5029295;28;20049;-52
2022/04/04 10:28:35;;;;;;;8.73;6.43;;;;;;;16.63;18.99;93840.63;5029912;28;20065;-56
2022/04/04 10:31:20;;;;;;;7.53;6.53;;;;;;;13.12;22.88;93848.03;5032639;28;20075;-55
2022/04/04 10:33:49;;;;;;;7.17;6.00;;;;;;;16.86;20.02;93842.91;5033291;28;20037;-51
2022/04/04 10:36:25;;;;;;;8.70;6.28;;;;;;;14.69;21.84;93833.69;5032140;28;20119;-54
2022/04/04 10:38:55;;;;;;;7.40;6.20;;;;;;;13.74;22.92;93829.47;5032425;28;20105;-52
2022/04/04 10:41:27;;;;;;;8.07;6.53;;;;;;;15.04;21.99;93820.69;5032925;28;20332;-54
2022/04/04 10:43:55;;;;;;;8.50;6.78;;;;;;;13.47;23.75;93829.81;5032567;28;20053;-52
2022/04/04 10:46:24;;;;;;;9.03;7.20;;;;;;;15.03;21.60;93821.94;5033000;28;20052;-54
2022/04/04 10:48:52;;;;;;;8.80;7.40;;;;;;;11.26;26.01;93823.53;5032479;28;20689;-48
2022/04/04 10:51:26;;;;;;;8.10;6.30;;;;;;;13.42;23.04;93811.06;5032688;28;20049;-49
2022/04/04 10:53:57;;;;;;;9.70;6.60;;;;;;;13.89;24.30;93810.50;5032222;28;20056;-51
2022/04/04 10:56:26;;;;;;;9.80;6.57;;;;;;;15.67;21.96;93809.81;5032747;28;20110;-51
2022/04/04 10:59:16;;;;;;;7.77;6.20;;;;;;;15.80;21.97;93805.03;5032010;28;20057;-56
2022/04/04 11:01:45;;;;;;;9.98;6.40;;;;;;;13.81;23.07;93795.38;5032776;28;20041;-51
2022/04/04 11:04:27;;;;;;;9.38;6.85;;;;;;;14.83;23.68;93791.81;5031698;28;20376;-51
2022/04/04 11:10:06;;;;;;;13.80;6.85;;;;;;;15.24;22.30;93790.00;5032101;28;20048;-55
2022/04/04 11:13:04;;;;;;;8.77;6.47;;;;;;;13.83;24.57;93781.91;5032555;28;20059;-51
2022/04/04 11:15:53;;;;;;;12.30;7.28;;;;;;;15.52;24.66;93784.69;5031650;28;20041;-48
2022/04/04 11:18:20;;;;;;;9.48;7.10;;;;;;;14.41;25.42;93791.19;5031288;28;20299;-51
2022/04/04 11:20:58;;;;;;;12.55;7.38;;;;;;;11.41;28.53;93782.81;5030579;28;20095;-51
2022/04/04 11:23:37;;;;;;;18.83;8.48;;;;;;;10.82;29.00;93786.31;5032020;28;20059;-51
2022/04/04 11:26:04;;;;;;;15.77;7.93;;;;;;;10.29;30.65;93777.78;5031835;28;20499;-50
2022/04/04 11:28:36;;;;;;;10.90;7.10;;;;;;;11.14;29.79;93772.75;5029527;28;20046;-50
2022/04/04 11:31:07;;;;;;;10.63;7.43;;;;;;;10.58;30.42;93767.91;5018762;28;20139;-52
2022/04/04 11:33:54;;;;;;;14.23;7.15;;;;;;;9.67;32.97;93766.97;5031988;28;20064;-51
2022/04/04 11:36:27;;;;;;;10.05;7.00;;;;;;;10.12;31.83;93772.19;5031256;28;20672;-46
2022/04/04 11:39:00;;;;;;;10.30;7.20;;;;;;;10.86;30.82;93763.09;5031451;28;20495;-52
2022/04/04 11:41:30;;;;;;;10.98;7.00;;;;;;;10.71;31.37;93750.84;5031831;28;20063;-47
2022/04/04 11:43:57;;;;;;;10.73;6.90;;;;;;;10.32;31.49;93749.53;5031333;28;20045;-48